sensor_id;sensor_type;location;lat;lon;timestamp;temperature;humidity
44723;DHT22;30451;48.638;10.624;2023-04-08T00:01:52;24.70;43.50
44723;DHT22;30451;48.638;10.624;2023-04-08T00:04:18;24.70;43.50
44723;DHT22;30451;48.638;10.624;2023-04-08T00:06:44;24.70;44.00
44723;DHT22;30451;48.638;10.624;2023-04-08T00:09:10;24.70;43.40
44723;DHT22;30451;48.638;10.624;2023-04-08T00:11:36;24.70;43.50
44723;DHT22;30451;48.638;10.624;2023-04-08T00:14:03;24.70;43.40
44723;DHT22;30451;48.638;10.624;2023-04-08T00:16:29;24.70;43.40
44723;DHT22;30451;48.638;10.624;2023-04-08T00:18:54;24.70;43.40
44723;DHT22;30451;48.638;10.624;2023-04-08T00:21:21;24.70;43.40
44723;DHT22;30451;48.638;10.624;2023-04-08T00:23:47;24.70;43.40
44723;DHT22;30451;48.638;10.624;2023-04-08T00:26:13;24.70;43.40
44723;DHT22;30451;48.638;10.624;2023-04-08T00:28:39;24.70;43.40
44723;DHT22;30451;48.638;10.624;2023-04-08T00:31:05;24.70;43.80
44723;DHT22;30451;48.638;10.624;2023-04-08T00:33:31;24.70;43.30
44723;DHT22;30451;48.638;10.624;2023-04-08T00:35:56;24.70;43.30
44723;DHT22;30451;48.638;10.624;2023-04-08T00:38:22;24.80;43.80
44723;DHT22;30451;48.638;10.624;2023-04-08T00:40:48;24.70;43.30
44723;DHT22;30451;48.638;10.624;2023-04-08T00:43:13;24.70;43.30
44723;DHT22;30451;48.638;10.624;2023-04-08T00:45:40;24.70;43.30
44723;DHT22;30451;48.638;10.624;2023-04-08T00:48:06;24.80;43.30
44723;DHT22;30451;48.638;10.624;2023-04-08T00:50:32;24.80;43.30
44723;DHT22;30451;48.638;10.624;2023-04-08T00:52:58;24.80;43.30
44723;DHT22;30451;48.638;10.624;2023-04-08T00:55:23;24.70;43.20
44723;DHT22;30451;48.638;10.624;2023-04-08T00:57:49;24.80;43.20
44723;DHT22;30451;48.638;10.624;2023-04-08T01:00:15;24.80;43.20
44723;DHT22;30451;48.638;10.624;2023-04-08T01:08:12;24.80;43.20
44723;DHT22;30451;48.638;10.624;2023-04-08T01:10:40;24.80;43.20
44723;DHT22;30451;48.638;10.624;2023-04-08T01:13:11;24.80;43.20
44723;DHT22;30451;48.638;10.624;2023-04-08T01:15:39;24.80;43.10
44723;DHT22;30451;48.638;10.624;2023-04-08T01:18:11;24.80;43.10
44723;DHT22;30451;48.638;10.624;2023-04-08T01:20:39;24.70;43.10
44723;DHT22;30451;48.638;10.624;2023-04-08T01:23:16;24.80;43.10
44723;DHT22;30451;48.638;10.624;2023-04-08T01:25:54;24.80;43.10
44723;DHT22;30451;48.638;10.624;2023-04-08T01:28:22;24.80;43.10
44723;DHT22;30451;48.638;10.624;2023-04-08T01:30:49;24.80;43.10
44723;DHT22;30451;48.638;10.624;2023-04-08T01:33:17;24.80;43.10
44723;DHT22;30451;48.638;10.624;2023-04-08T01:35:44;24.80;43.10
44723;DHT22;30451;48.638;10.624;2023-04-08T01:38:14;24.80;43.00
44723;DHT22;30451;48.638;10.624;2023-04-08T01:40:41;24.80;43.00
44723;DHT22;30451;48.638;10.624;2023-04-08T01:43:09;24.80;43.00
44723;DHT22;30451;48.638;10.624;2023-04-08T01:45:35;24.80;43.00
44723;DHT22;30451;48.638;10.624;2023-04-08T01:48:01;24.80;43.10
44723;DHT22;30451;48.638;10.624;2023-04-08T01:50:28;24.80;43.00
44723;DHT22;30451;48.638;10.624;2023-04-08T01:52:56;24.80;43.00
44723;DHT22;30451;48.638;10.624;2023-04-08T01:55:22;24.80;43.00
44723;DHT22;30451;48.638;10.624;2023-04-08T01:57:50;24.80;43.50
44723;DHT22;30451;48.638;10.624;2023-04-08T02:00:20;24.80;43.00
44723;DHT22;30451;48.638;10.624;2023-04-08T02:02:48;24.80;42.90
44723;DHT22;30451;48.638;10.624;2023-04-08T02:05:14;24.80;43.00
44723;DHT22;30451;48.638;10.624;2023-04-08T02:07:40;24.70;43.00
44723;DHT22;30451;48.638;10.624;2023-04-08T02:10:06;24.70;43.00
44723;DHT22;30451;48.638;10.624;2023-04-08T02:12:32;24.70;43.00
44723;DHT22;30451;48.638;10.624;2023-04-08T02:14:58;24.70;43.60
44723;DHT22;30451;48.638;10.624;2023-04-08T02:17:42;24.70;43.00
44723;DHT22;30451;48.638;10.624;2023-04-08T02:25:18;24.60;43.00
44723;DHT22;30451;48.638;10.624;2023-04-08T02:27:46;24.50;43.50
44723;DHT22;30451;48.638;10.624;2023-04-08T02:30:14;24.50;43.00
44723;DHT22;30451;48.638;10.624;2023-04-08T02:32:43;24.50;43.60
44723;DHT22;30451;48.638;10.624;2023-04-08T02:35:10;24.50;43.00
44723;DHT22;30451;48.638;10.624;2023-04-08T02:37:36;24.50;43.10
44723;DHT22;30451;48.638;10.624;2023-04-08T02:40:02;24.40;43.10
44723;DHT22;30451;48.638;10.624;2023-04-08T02:42:28;24.40;43.10
44723;DHT22;30451;48.638;10.624;2023-04-08T02:44:54;24.40;43.10
44723;DHT22;30451;48.638;10.624;2023-04-08T02:47:21;24.40;43.10
44723;DHT22;30451;48.638;10.624;2023-04-08T02:49:46;24.30;43.10
44723;DHT22;30451;48.638;10.624;2023-04-08T02:52:12;24.30;43.10
44723;DHT22;30451;48.638;10.624;2023-04-08T02:54:38;24.30;43.60
44723;DHT22;30451;48.638;10.624;2023-04-08T02:57:03;24.30;43.10
44723;DHT22;30451;48.638;10.624;2023-04-08T02:59:29;24.30;43.20
44723;DHT22;30451;48.638;10.624;2023-04-08T03:01:55;24.20;43.10
44723;DHT22;30451;48.638;10.624;2023-04-08T03:04:21;24.20;43.10
44723;DHT22;30451;48.638;10.624;2023-04-08T03:06:46;24.20;43.20
44723;DHT22;30451;48.638;10.624;2023-04-08T03:09:12;24.20;43.20
44723;DHT22;30451;48.638;10.624;2023-04-08T03:11:37;24.10;43.20
44723;DHT22;30451;48.638;10.624;2023-04-08T03:14:03;24.10;43.20
44723;DHT22;30451;48.638;10.624;2023-04-08T03:16:28;24.10;43.20
44723;DHT22;30451;48.638;10.624;2023-04-08T03:18:54;24.10;43.20
44723;DHT22;30451;48.638;10.624;2023-04-08T03:21:20;24.10;43.30
44723;DHT22;30451;48.638;10.624;2023-04-08T03:23:46;24.10;43.30
44723;DHT22;30451;48.638;10.624;2023-04-08T03:26:11;24.10;43.30
44723;DHT22;30451;48.638;10.624;2023-04-08T03:28:37;24.00;43.30
44723;DHT22;30451;48.638;10.624;2023-04-08T03:31:03;24.00;43.30
44723;DHT22;30451;48.638;10.624;2023-04-08T03:33:29;24.00;43.90
44723;DHT22;30451;48.638;10.624;2023-04-08T03:35:55;23.90;43.30
44723;DHT22;30451;48.638;10.624;2023-04-08T03:38:20;24.00;43.40
44723;DHT22;30451;48.638;10.624;2023-04-08T03:40:46;23.90;43.30
44723;DHT22;30451;48.638;10.624;2023-04-08T03:43:12;23.90;43.40
44723;DHT22;30451;48.638;10.624;2023-04-08T03:45:38;23.90;43.40
44723;DHT22;30451;48.638;10.624;2023-04-08T03:48:04;23.90;43.40
44723;DHT22;30451;48.638;10.624;2023-04-08T03:50:30;23.80;43.40
44723;DHT22;30451;48.638;10.624;2023-04-08T03:52:55;23.80;43.40
44723;DHT22;30451;48.638;10.624;2023-04-08T03:55:21;23.80;43.40
44723;DHT22;30451;48.638;10.624;2023-04-08T03:57:47;23.80;43.50
44723;DHT22;30451;48.638;10.624;2023-04-08T04:00:13;23.70;43.40
44723;DHT22;30451;48.638;10.624;2023-04-08T04:02:38;23.80;43.60
44723;DHT22;30451;48.638;10.624;2023-04-08T04:05:05;23.70;43.50
44723;DHT22;30451;48.638;10.624;2023-04-08T04:07:30;23.70;43.50
44723;DHT22;30451;48.638;10.624;2023-04-08T04:09:56;23.70;43.50
44723;DHT22;30451;48.638;10.624;2023-04-08T04:12:22;23.70;43.50
44723;DHT22;30451;48.638;10.624;2023-04-08T04:14:48;23.70;43.60
44723;DHT22;30451;48.638;10.624;2023-04-08T04:17:14;23.60;43.60
44723;DHT22;30451;48.638;10.624;2023-04-08T04:19:39;23.60;43.60
44723;DHT22;30451;48.638;10.624;2023-04-08T04:22:05;23.60;43.60
44723;DHT22;30451;48.638;10.624;2023-04-08T04:24:31;23.60;43.60
44723;DHT22;30451;48.638;10.624;2023-04-08T04:26:56;23.60;43.60
44723;DHT22;30451;48.638;10.624;2023-04-08T04:29:22;23.50;43.60
44723;DHT22;30451;48.638;10.624;2023-04-08T04:31:47;23.50;43.60
44723;DHT22;30451;48.638;10.624;2023-04-08T04:34:13;23.50;43.60
44723;DHT22;30451;48.638;10.624;2023-04-08T04:36:39;23.50;43.70
44723;DHT22;30451;48.638;10.624;2023-04-08T04:39:05;23.50;43.70
44723;DHT22;30451;48.638;10.624;2023-04-08T04:41:30;23.50;43.60
44723;DHT22;30451;48.638;10.624;2023-04-08T04:43:56;23.50;43.70
44723;DHT22;30451;48.638;10.624;2023-04-08T04:46:21;23.50;43.70
44723;DHT22;30451;48.638;10.624;2023-04-08T04:48:47;23.40;43.60
44723;DHT22;30451;48.638;10.624;2023-04-08T04:51:13;23.40;43.70
44723;DHT22;30451;48.638;10.624;2023-04-08T04:53:38;23.40;43.70
44723;DHT22;30451;48.638;10.624;2023-04-08T04:56:04;23.40;43.70
44723;DHT22;30451;48.638;10.624;2023-04-08T04:58:30;23.40;43.70
44723;DHT22;30451;48.638;10.624;2023-04-08T05:00:56;23.40;43.70
44723;DHT22;30451;48.638;10.624;2023-04-08T05:03:22;23.40;43.70
44723;DHT22;30451;48.638;10.624;2023-04-08T05:05:52;23.40;43.80
44723;DHT22;30451;48.638;10.624;2023-04-08T05:08:18;23.30;43.80
44723;DHT22;30451;48.638;10.624;2023-04-08T05:10:43;23.30;43.70
44723;DHT22;30451;48.638;10.624;2023-04-08T05:13:09;23.30;43.70
44723;DHT22;30451;48.638;10.624;2023-04-08T05:15:34;23.30;43.80
44723;DHT22;30451;48.638;10.624;2023-04-08T05:18:00;23.30;43.80
44723;DHT22;30451;48.638;10.624;2023-04-08T05:20:26;23.30;43.90
44723;DHT22;30451;48.638;10.624;2023-04-08T05:22:51;23.20;43.80
44723;DHT22;30451;48.638;10.624;2023-04-08T05:25:17;23.30;43.80
44723;DHT22;30451;48.638;10.624;2023-04-08T05:27:42;23.20;43.80
44723;DHT22;30451;48.638;10.624;2023-04-08T05:30:08;23.20;43.80
44723;DHT22;30451;48.638;10.624;2023-04-08T05:32:34;23.20;43.80
44723;DHT22;30451;48.638;10.624;2023-04-08T05:35:02;23.20;43.80
44723;DHT22;30451;48.638;10.624;2023-04-08T05:37:28;23.20;43.80
44723;DHT22;30451;48.638;10.624;2023-04-08T05:39:53;23.20;43.80
44723;DHT22;30451;48.638;10.624;2023-04-08T05:42:19;23.20;43.80
44723;DHT22;30451;48.638;10.624;2023-04-08T05:44:45;23.10;43.80
44723;DHT22;30451;48.638;10.624;2023-04-08T05:47:10;23.10;43.80
44723;DHT22;30451;48.638;10.624;2023-04-08T05:49:36;23.10;43.80
44723;DHT22;30451;48.638;10.624;2023-04-08T05:52:02;23.10;43.80
44723;DHT22;30451;48.638;10.624;2023-04-08T05:54:28;23.10;43.80
44723;DHT22;30451;48.638;10.624;2023-04-08T05:56:54;23.10;43.90
44723;DHT22;30451;48.638;10.624;2023-04-08T05:59:19;23.10;43.80
44723;DHT22;30451;48.638;10.624;2023-04-08T06:01:45;23.10;43.90
44723;DHT22;30451;48.638;10.624;2023-04-08T06:04:11;23.10;43.90
44723;DHT22;30451;48.638;10.624;2023-04-08T06:06:37;23.10;43.90
44723;DHT22;30451;48.638;10.624;2023-04-08T06:09:04;23.10;43.90
44723;DHT22;30451;48.638;10.624;2023-04-08T06:11:30;23.00;43.80
44723;DHT22;30451;48.638;10.624;2023-04-08T06:13:55;23.00;43.80
44723;DHT22;30451;48.638;10.624;2023-04-08T06:16:21;23.00;43.80
44723;DHT22;30451;48.638;10.624;2023-04-08T06:18:47;23.00;43.90
44723;DHT22;30451;48.638;10.624;2023-04-08T06:21:13;23.00;43.80
44723;DHT22;30451;48.638;10.624;2023-04-08T06:23:38;23.00;43.90
44723;DHT22;30451;48.638;10.624;2023-04-08T06:26:04;23.00;43.90
44723;DHT22;30451;48.638;10.624;2023-04-08T06:28:29;23.00;43.90
44723;DHT22;30451;48.638;10.624;2023-04-08T06:30:56;23.00;43.90
44723;DHT22;30451;48.638;10.624;2023-04-08T06:33:21;22.90;43.80
44723;DHT22;30451;48.638;10.624;2023-04-08T06:35:47;23.00;43.90
44723;DHT22;30451;48.638;10.624;2023-04-08T06:38:13;23.00;44.00
44723;DHT22;30451;48.638;10.624;2023-04-08T06:40:39;22.90;43.90
44723;DHT22;30451;48.638;10.624;2023-04-08T06:43:05;22.90;43.90
44723;DHT22;30451;48.638;10.624;2023-04-08T06:45:33;22.90;43.90
44723;DHT22;30451;48.638;10.624;2023-04-08T06:47:59;22.90;43.90
44723;DHT22;30451;48.638;10.624;2023-04-08T06:50:25;22.90;44.00
44723;DHT22;30451;48.638;10.624;2023-04-08T06:52:51;22.90;43.90
44723;DHT22;30451;48.638;10.624;2023-04-08T06:55:16;22.90;44.00
44723;DHT22;30451;48.638;10.624;2023-04-08T06:57:42;22.90;44.00
44723;DHT22;30451;48.638;10.624;2023-04-08T07:00:08;22.90;44.00
44723;DHT22;30451;48.638;10.624;2023-04-08T07:02:34;22.90;44.00
44723;DHT22;30451;48.638;10.624;2023-04-08T07:04:59;22.80;43.90
44723;DHT22;30451;48.638;10.624;2023-04-08T07:07:25;22.90;43.90
44723;DHT22;30451;48.638;10.624;2023-04-08T07:09:51;22.80;43.90
44723;DHT22;30451;48.638;10.624;2023-04-08T07:12:16;22.80;43.80
44723;DHT22;30451;48.638;10.624;2023-04-08T07:14:42;22.80;43.80
44723;DHT22;30451;48.638;10.624;2023-04-08T07:17:07;22.80;43.80
44723;DHT22;30451;48.638;10.624;2023-04-08T07:19:33;22.80;43.80
44723;DHT22;30451;48.638;10.624;2023-04-08T07:21:59;22.80;43.80
44723;DHT22;30451;48.638;10.624;2023-04-08T07:24:25;22.80;43.80
44723;DHT22;30451;48.638;10.624;2023-04-08T07:26:51;22.80;43.80
44723;DHT22;30451;48.638;10.624;2023-04-08T07:29:17;22.80;43.80
44723;DHT22;30451;48.638;10.624;2023-04-08T07:31:42;22.70;43.80
44723;DHT22;30451;48.638;10.624;2023-04-08T07:34:09;22.70;43.80
44723;DHT22;30451;48.638;10.624;2023-04-08T07:36:35;22.70;43.80
44723;DHT22;30451;48.638;10.624;2023-04-08T07:39:00;22.70;43.80
44723;DHT22;30451;48.638;10.624;2023-04-08T07:41:27;22.70;43.80
44723;DHT22;30451;48.638;10.624;2023-04-08T07:43:52;22.70;43.80
44723;DHT22;30451;48.638;10.624;2023-04-08T07:46:18;22.70;43.80
44723;DHT22;30451;48.638;10.624;2023-04-08T07:48:44;22.70;43.80
44723;DHT22;30451;48.638;10.624;2023-04-08T07:51:10;22.70;43.80
44723;DHT22;30451;48.638;10.624;2023-04-08T07:53:36;22.70;43.80
44723;DHT22;30451;48.638;10.624;2023-04-08T07:56:01;22.70;43.80
44723;DHT22;30451;48.638;10.624;2023-04-08T07:58:30;22.70;43.80
44723;DHT22;30451;48.638;10.624;2023-04-08T08:00:56;22.70;43.90
44723;DHT22;30451;48.638;10.624;2023-04-08T08:03:22;22.70;43.90
44723;DHT22;30451;48.638;10.624;2023-04-08T08:05:48;22.70;43.90
44723;DHT22;30451;48.638;10.624;2023-04-08T08:08:14;22.70;43.90
44723;DHT22;30451;48.638;10.624;2023-04-08T08:10:40;22.60;43.90
44723;DHT22;30451;48.638;10.624;2023-04-08T08:13:06;22.70;43.90
44723;DHT22;30451;48.638;10.624;2023-04-08T08:15:32;22.70;44.00
44723;DHT22;30451;48.638;10.624;2023-04-08T08:17:58;22.70;44.00
44723;DHT22;30451;48.638;10.624;2023-04-08T08:20:23;22.70;44.00
44723;DHT22;30451;48.638;10.624;2023-04-08T08:22:49;22.70;44.00
44723;DHT22;30451;48.638;10.624;2023-04-08T08:25:15;22.70;44.00
44723;DHT22;30451;48.638;10.624;2023-04-08T08:27:42;22.70;44.00
44723;DHT22;30451;48.638;10.624;2023-04-08T08:30:08;22.70;44.00
44723;DHT22;30451;48.638;10.624;2023-04-08T08:32:34;22.70;44.00
44723;DHT22;30451;48.638;10.624;2023-04-08T08:35:00;22.70;44.00
44723;DHT22;30451;48.638;10.624;2023-04-08T08:37:26;22.70;44.10
44723;DHT22;30451;48.638;10.624;2023-04-08T08:39:52;22.70;44.10
44723;DHT22;30451;48.638;10.624;2023-04-08T08:42:21;22.70;44.10
44723;DHT22;30451;48.638;10.624;2023-04-08T08:44:48;22.60;44.10
44723;DHT22;30451;48.638;10.624;2023-04-08T08:47:15;22.60;44.10
44723;DHT22;30451;48.638;10.624;2023-04-08T08:49:41;22.60;44.10
44723;DHT22;30451;48.638;10.624;2023-04-08T08:52:06;22.60;44.10
44723;DHT22;30451;48.638;10.624;2023-04-08T08:54:32;22.60;44.10
44723;DHT22;30451;48.638;10.624;2023-04-08T08:56:58;22.60;44.10
44723;DHT22;30451;48.638;10.624;2023-04-08T08:59:23;22.60;44.20
44723;DHT22;30451;48.638;10.624;2023-04-08T09:01:49;22.60;44.20
44723;DHT22;30451;48.638;10.624;2023-04-08T09:04:19;22.60;44.20
44723;DHT22;30451;48.638;10.624;2023-04-08T09:07:07;22.60;44.20
44723;DHT22;30451;48.638;10.624;2023-04-08T09:09:52;22.60;44.30
44723;DHT22;30451;48.638;10.624;2023-04-08T09:12:18;22.60;44.30
44723;DHT22;30451;48.638;10.624;2023-04-08T09:14:44;22.60;44.30
44723;DHT22;30451;48.638;10.624;2023-04-08T09:17:10;22.60;44.40
44723;DHT22;30451;48.638;10.624;2023-04-08T09:19:35;22.60;44.40
44723;DHT22;30451;48.638;10.624;2023-04-08T09:22:11;22.60;44.40
44723;DHT22;30451;48.638;10.624;2023-04-08T09:24:36;22.60;44.40
44723;DHT22;30451;48.638;10.624;2023-04-08T09:27:03;22.60;45.00
44723;DHT22;30451;48.638;10.624;2023-04-08T09:29:29;22.60;44.50
44723;DHT22;30451;48.638;10.624;2023-04-08T09:31:59;22.50;44.50
44723;DHT22;30451;48.638;10.624;2023-04-08T09:34:26;22.60;44.60
44723;DHT22;30451;48.638;10.624;2023-04-08T09:36:53;22.50;44.50
44723;DHT22;30451;48.638;10.624;2023-04-08T09:39:19;22.60;44.60
44723;DHT22;30451;48.638;10.624;2023-04-08T09:41:47;22.50;44.50
44723;DHT22;30451;48.638;10.624;2023-04-08T09:44:14;22.60;44.60
44723;DHT22;30451;48.638;10.624;2023-04-08T09:46:52;22.50;44.60
44723;DHT22;30451;48.638;10.624;2023-04-08T09:49:45;22.50;44.60
44723;DHT22;30451;48.638;10.624;2023-04-08T09:55:03;22.50;44.60
44723;DHT22;30451;48.638;10.624;2023-04-08T10:00:23;22.50;44.60
44723;DHT22;30451;48.638;10.624;2023-04-08T10:05:44;22.50;44.70
44723;DHT22;30451;48.638;10.624;2023-04-08T10:08:11;22.50;44.70
44723;DHT22;30451;48.638;10.624;2023-04-08T10:10:38;22.50;44.70
44723;DHT22;30451;48.638;10.624;2023-04-08T10:13:06;22.50;45.20
44723;DHT22;30451;48.638;10.624;2023-04-08T10:15:33;22.50;44.70
44723;DHT22;30451;48.638;10.624;2023-04-08T10:23:05;22.50;44.80
44723;DHT22;30451;48.638;10.624;2023-04-08T10:25:33;22.50;44.80
44723;DHT22;30451;48.638;10.624;2023-04-08T10:28:00;22.50;44.80
44723;DHT22;30451;48.638;10.624;2023-04-08T10:32:58;22.50;44.80
44723;DHT22;30451;48.638;10.624;2023-04-08T10:35:40;22.50;44.80
44723;DHT22;30451;48.638;10.624;2023-04-08T10:38:06;22.50;44.80
44723;DHT22;30451;48.638;10.624;2023-04-08T10:40:37;22.50;44.80
44723;DHT22;30451;48.638;10.624;2023-04-08T10:43:07;22.50;44.90
44723;DHT22;30451;48.638;10.624;2023-04-08T10:45:33;22.40;44.80
44723;DHT22;30451;48.638;10.624;2023-04-08T10:48:18;22.40;44.90
44723;DHT22;30451;48.638;10.624;2023-04-08T10:51:00;22.40;44.90
44723;DHT22;30451;48.638;10.624;2023-04-08T10:53:31;22.40;45.40
44723;DHT22;30451;48.638;10.624;2023-04-08T10:58:32;22.40;44.90
44723;DHT22;30451;48.638;10.624;2023-04-08T11:01:05;22.40;44.90
44723;DHT22;30451;48.638;10.624;2023-04-08T11:03:35;22.40;44.90
44723;DHT22;30451;48.638;10.624;2023-04-08T11:06:01;22.40;44.90
44723;DHT22;30451;48.638;10.624;2023-04-08T11:08:28;22.40;45.00
44723;DHT22;30451;48.638;10.624;2023-04-08T11:10:54;22.40;45.00
44723;DHT22;30451;48.638;10.624;2023-04-08T11:13:21;22.40;45.00
44723;DHT22;30451;48.638;10.624;2023-04-08T11:15:48;22.40;45.00
44723;DHT22;30451;48.638;10.624;2023-04-08T11:18:15;22.40;45.00
44723;DHT22;30451;48.638;10.624;2023-04-08T11:20:43;22.40;45.00
44723;DHT22;30451;48.638;10.624;2023-04-08T11:23:12;22.40;45.00
44723;DHT22;30451;48.638;10.624;2023-04-08T11:25:39;22.40;45.00
44723;DHT22;30451;48.638;10.624;2023-04-08T11:28:05;22.40;45.10
44723;DHT22;30451;48.638;10.624;2023-04-08T11:30:31;22.50;45.10
44723;DHT22;30451;48.638;10.624;2023-04-08T11:32:57;22.50;45.10
44723;DHT22;30451;48.638;10.624;2023-04-08T11:35:23;22.50;45.10
44723;DHT22;30451;48.638;10.624;2023-04-08T11:37:52;22.50;45.10
44723;DHT22;30451;48.638;10.624;2023-04-08T11:40:20;22.50;45.10
44723;DHT22;30451;48.638;10.624;2023-04-08T11:42:46;22.50;45.10
44723;DHT22;30451;48.638;10.624;2023-04-08T11:45:14;22.50;45.00
44723;DHT22;30451;48.638;10.624;2023-04-08T11:47:41;22.60;45.00
44723;DHT22;30451;48.638;10.624;2023-04-08T11:50:07;22.60;45.00
44723;DHT22;30451;48.638;10.624;2023-04-08T11:55:06;22.70;44.90
44723;DHT22;30451;48.638;10.624;2023-04-08T11:57:32;22.70;44.80
44723;DHT22;30451;48.638;10.624;2023-04-08T11:59:57;22.70;44.80
44723;DHT22;30451;48.638;10.624;2023-04-08T12:02:23;22.70;44.70
44723;DHT22;30451;48.638;10.624;2023-04-08T12:04:48;22.80;44.70
44723;DHT22;30451;48.638;10.624;2023-04-08T12:07:14;22.80;44.70
44723;DHT22;30451;48.638;10.624;2023-04-08T12:09:40;22.80;44.70
44723;DHT22;30451;48.638;10.624;2023-04-08T12:12:05;22.80;44.60
44723;DHT22;30451;48.638;10.624;2023-04-08T12:14:31;22.80;44.60
44723;DHT22;30451;48.638;10.624;2023-04-08T12:16:57;22.90;44.70
44723;DHT22;30451;48.638;10.624;2023-04-08T12:19:23;22.90;44.60
44723;DHT22;30451;48.638;10.624;2023-04-08T12:21:48;22.90;44.50
44723;DHT22;30451;48.638;10.624;2023-04-08T12:24:14;22.90;44.50
44723;DHT22;30451;48.638;10.624;2023-04-08T12:26:40;22.90;44.50
44723;DHT22;30451;48.638;10.624;2023-04-08T12:29:05;23.00;44.60
44723;DHT22;30451;48.638;10.624;2023-04-08T12:31:33;23.00;44.60
44723;DHT22;30451;48.638;10.624;2023-04-08T12:33:59;23.00;44.50
44723;DHT22;30451;48.638;10.624;2023-04-08T12:36:24;23.00;44.50
44723;DHT22;30451;48.638;10.624;2023-04-08T12:38:51;23.00;44.50
44723;DHT22;30451;48.638;10.624;2023-04-08T12:41:17;23.00;44.40
44723;DHT22;30451;48.638;10.624;2023-04-08T12:43:42;23.00;44.50
44723;DHT22;30451;48.638;10.624;2023-04-08T12:46:08;23.00;44.50
44723;DHT22;30451;48.638;10.624;2023-04-08T12:48:34;23.10;44.60
44723;DHT22;30451;48.638;10.624;2023-04-08T12:50:59;23.10;44.60
44723;DHT22;30451;48.638;10.624;2023-04-08T12:53:25;23.10;44.50
44723;DHT22;30451;48.638;10.624;2023-04-08T12:55:51;23.10;44.60
44723;DHT22;30451;48.638;10.624;2023-04-08T12:58:21;23.10;44.60
44723;DHT22;30451;48.638;10.624;2023-04-08T13:00:47;23.10;44.60
44723;DHT22;30451;48.638;10.624;2023-04-08T13:03:14;23.20;44.70
44723;DHT22;30451;48.638;10.624;2023-04-08T13:05:41;23.20;44.50
44723;DHT22;30451;48.638;10.624;2023-04-08T13:08:07;23.20;44.50
44723;DHT22;30451;48.638;10.624;2023-04-08T13:10:33;23.20;44.40
44723;DHT22;30451;48.638;10.624;2023-04-08T13:12:58;23.30;44.40
44723;DHT22;30451;48.638;10.624;2023-04-08T13:15:24;23.30;44.40
44723;DHT22;30451;48.638;10.624;2023-04-08T13:17:49;23.30;44.30
44723;DHT22;30451;48.638;10.624;2023-04-08T13:20:15;23.30;44.30
44723;DHT22;30451;48.638;10.624;2023-04-08T13:22:41;23.40;44.30
44723;DHT22;30451;48.638;10.624;2023-04-08T13:25:07;23.40;44.30
44723;DHT22;30451;48.638;10.624;2023-04-08T13:27:32;23.40;44.30
44723;DHT22;30451;48.638;10.624;2023-04-08T13:29:58;23.40;44.20
44723;DHT22;30451;48.638;10.624;2023-04-08T13:32:23;23.40;44.20
44723;DHT22;30451;48.638;10.624;2023-04-08T13:34:49;23.40;44.10
44723;DHT22;30451;48.638;10.624;2023-04-08T13:37:15;23.40;44.10
44723;DHT22;30451;48.638;10.624;2023-04-08T13:39:41;23.50;44.10
44723;DHT22;30451;48.638;10.624;2023-04-08T13:42:06;23.50;44.00
44723;DHT22;30451;48.638;10.624;2023-04-08T13:44:32;23.50;44.00
44723;DHT22;30451;48.638;10.624;2023-04-08T13:46:58;23.50;43.90
44723;DHT22;30451;48.638;10.624;2023-04-08T13:49:24;23.50;44.00
44723;DHT22;30451;48.638;10.624;2023-04-08T13:51:50;23.50;43.90
44723;DHT22;30451;48.638;10.624;2023-04-08T13:54:16;23.50;43.90
44723;DHT22;30451;48.638;10.624;2023-04-08T13:56:41;23.50;43.90
44723;DHT22;30451;48.638;10.624;2023-04-08T13:59:07;23.50;43.90
44723;DHT22;30451;48.638;10.624;2023-04-08T14:01:34;23.50;43.80
44723;DHT22;30451;48.638;10.624;2023-04-08T14:04:00;23.50;43.80
44723;DHT22;30451;48.638;10.624;2023-04-08T14:06:25;23.60;43.90
44723;DHT22;30451;48.638;10.624;2023-04-08T14:08:51;23.60;43.90
44723;DHT22;30451;48.638;10.624;2023-04-08T14:11:17;23.50;43.90
44723;DHT22;30451;48.638;10.624;2023-04-08T14:13:43;23.50;43.90
44723;DHT22;30451;48.638;10.624;2023-04-08T14:16:08;23.60;43.90
44723;DHT22;30451;48.638;10.624;2023-04-08T14:18:34;23.50;43.80
44723;DHT22;30451;48.638;10.624;2023-04-08T14:21:00;23.50;43.70
44723;DHT22;30451;48.638;10.624;2023-04-08T14:23:27;23.60;43.70
44723;DHT22;30451;48.638;10.624;2023-04-08T14:25:52;23.60;43.80
44723;DHT22;30451;48.638;10.624;2023-04-08T14:28:18;23.60;43.70
44723;DHT22;30451;48.638;10.624;2023-04-08T14:30:43;23.60;43.70
44723;DHT22;30451;48.638;10.624;2023-04-08T14:33:09;23.60;43.70
44723;DHT22;30451;48.638;10.624;2023-04-08T14:35:34;23.50;43.80
44723;DHT22;30451;48.638;10.624;2023-04-08T14:38:01;23.60;43.90
44723;DHT22;30451;48.638;10.624;2023-04-08T14:40:26;23.50;43.80
44723;DHT22;30451;48.638;10.624;2023-04-08T14:42:52;23.50;43.70
44723;DHT22;30451;48.638;10.624;2023-04-08T14:45:18;23.50;43.70
44723;DHT22;30451;48.638;10.624;2023-04-08T14:47:44;23.50;43.80
44723;DHT22;30451;48.638;10.624;2023-04-08T14:50:10;23.50;43.80
44723;DHT22;30451;48.638;10.624;2023-04-08T14:52:36;23.50;43.80
44723;DHT22;30451;48.638;10.624;2023-04-08T14:55:01;23.50;43.80
44723;DHT22;30451;48.638;10.624;2023-04-08T14:57:27;23.50;43.80
44723;DHT22;30451;48.638;10.624;2023-04-08T14:59:53;23.50;44.40
44723;DHT22;30451;48.638;10.624;2023-04-08T15:02:18;23.50;43.80
44723;DHT22;30451;48.638;10.624;2023-04-08T15:04:44;23.50;43.80
44723;DHT22;30451;48.638;10.624;2023-04-08T15:07:09;23.50;43.80
44723;DHT22;30451;48.638;10.624;2023-04-08T15:09:35;23.60;43.80
44723;DHT22;30451;48.638;10.624;2023-04-08T15:12:01;23.50;43.80
44723;DHT22;30451;48.638;10.624;2023-04-08T15:14:26;23.50;43.80
44723;DHT22;30451;48.638;10.624;2023-04-08T15:16:52;23.60;43.80
44723;DHT22;30451;48.638;10.624;2023-04-08T15:19:18;23.60;43.80
44723;DHT22;30451;48.638;10.624;2023-04-08T15:21:44;23.60;43.70
44723;DHT22;30451;48.638;10.624;2023-04-08T15:24:10;23.60;43.80
44723;DHT22;30451;48.638;10.624;2023-04-08T15:26:36;23.60;43.70
44723;DHT22;30451;48.638;10.624;2023-04-08T15:29:01;23.60;43.70
44723;DHT22;30451;48.638;10.624;2023-04-08T15:31:29;23.70;43.70
44723;DHT22;30451;48.638;10.624;2023-04-08T15:33:54;23.70;43.70
44723;DHT22;30451;48.638;10.624;2023-04-08T15:36:20;23.60;43.60
44723;DHT22;30451;48.638;10.624;2023-04-08T15:38:46;23.70;43.60
44723;DHT22;30451;48.638;10.624;2023-04-08T15:41:18;23.70;43.70
44723;DHT22;30451;48.638;10.624;2023-04-08T15:43:46;23.70;43.70